Time;durP1;ratioP1;P1;durP2;ratioP2;P2;SDS_P1;SDS_P2;PMS_P1;PMS_P2;Temp;Humidity;BMP_temperature;BMP_pressure;BME280_temperature;BME280_humidity;BME280_pressure;Samples;Min_cycle;Max_cycle;Signal;HPM_P1;HPM_P2
2023/11/19 00:00:20;;;;;;;5.35;1.92;;;;;;;11.84;100.00;100622.69;5078160;28;20043;-72
2023/11/19 00:03:05;;;;;;;12.48;2.60;;;;;;;11.81;100.00;100623.28;5061660;28;20046;-72
2023/11/19 00:05:50;;;;;;;9.80;2.38;;;;;;;11.78;100.00;100626.66;5073792;28;20036;-72
2023/11/19 00:08:34;;;;;;;8.70;2.05;;;;;;;11.72;100.00;100637.03;5066837;28;20055;-72
2023/11/19 00:11:18;;;;;;;8.00;2.30;;;;;;;11.69;100.00;100629.28;5074237;28;20035;-72
2023/11/19 00:14:02;;;;;;;11.57;3.30;;;;;;;11.68;100.00;100633.19;5062644;28;20055;-72
2023/11/19 00:16:47;;;;;;;9.57;2.30;;;;;;;11.64;100.00;100632.13;5088278;28;20108;-72
2023/11/19 00:19:31;;;;;;;7.97;2.33;;;;;;;11.62;100.00;100629.66;5098054;28;20454;-72
2023/11/19 00:22:15;;;;;;;10.05;2.50;;;;;;;11.60;100.00;100620.78;5086614;28;20526;-72
2023/11/19 00:24:59;;;;;;;11.73;2.72;;;;;;;11.60;100.00;100623.56;5079480;28;20079;-72
2023/11/19 00:27:46;;;;;;;9.60;2.50;;;;;;;11.60;100.00;100628.31;5080612;28;20043;-72
2023/11/19 00:30:31;;;;;;;15.27;2.67;;;;;;;11.56;100.00;100630.84;5089384;28;20035;-72
2023/11/19 00:33:15;;;;;;;11.38;2.40;;;;;;;11.56;100.00;100625.28;5092215;28;20097;-72
2023/11/19 00:35:59;;;;;;;9.35;2.33;;;;;;;11.56;100.00;100618.88;5097627;28;20039;-72
2023/11/19 00:38:43;;;;;;;11.07;2.20;;;;;;;11.54;100.00;100616.41;5084517;28;20432;-72
2023/11/19 00:41:27;;;;;;;13.07;2.60;;;;;;;11.54;100.00;100610.03;5084781;28;20085;-72
2023/11/19 00:44:11;;;;;;;13.15;2.70;;;;;;;11.51;100.00;100603.09;5080437;28;20042;-72
2023/11/19 00:46:55;;;;;;;14.15;2.80;;;;;;;11.50;100.00;100603.38;5048171;28;20507;-72
2023/11/19 00:49:39;;;;;;;13.10;2.90;;;;;;;11.48;100.00;100613.97;5077411;28;20044;-72
2023/11/19 00:52:23;;;;;;;12.90;2.33;;;;;;;11.44;100.00;100619.31;5077470;28;20062;-72
2023/11/19 00:55:08;;;;;;;12.65;2.60;;;;;;;11.41;100.00;100609.59;5077174;28;20161;-72
2023/11/19 00:57:51;;;;;;;8.63;2.35;;;;;;;11.41;100.00;100612.38;5078816;28;20098;-72
2023/11/19 01:00:36;;;;;;;9.25;2.70;;;;;;;11.37;100.00;100611.34;5077226;28;20093;-72
2023/11/19 01:03:20;;;;;;;11.40;2.75;;;;;;;11.38;100.00;100629.66;5089103;28;20071;-72
2023/11/19 01:06:04;;;;;;;15.48;2.90;;;;;;;11.37;100.00;100616.91;5082080;28;20067;-72
2023/11/19 01:08:48;;;;;;;15.75;2.78;;;;;;;11.37;100.00;100614.13;5078977;28;20086;-72
2023/11/19 01:11:32;;;;;;;9.70;2.22;;;;;;;11.36;100.00;100615.22;5047478;28;20066;-72
2023/11/19 01:14:17;;;;;;;13.32;2.40;;;;;;;11.38;100.00;100621.31;5077148;28;20039;-72
2023/11/19 01:17:01;;;;;;;15.18;3.20;;;;;;;11.37;100.00;100621.66;5094567;28;20056;-72
2023/11/19 01:19:45;;;;;;;9.05;2.50;;;;;;;11.35;100.00;100630.25;5095360;28;20545;-72
2023/11/19 01:22:29;;;;;;;11.43;2.55;;;;;;;11.35;100.00;100633.03;5077053;28;20043;-72
2023/11/19 01:25:13;;;;;;;11.98;2.65;;;;;;;11.32;100.00;100633.66;5081516;28;20117;-72
2023/11/19 01:27:58;;;;;;;15.35;3.45;;;;;;;11.33;100.00;100631.69;5074489;28;20074;-72
2023/11/19 01:30:42;;;;;;;11.73;3.17;;;;;;;11.31;100.00;100636.72;5061807;28;20102;-72
2023/11/19 01:33:27;;;;;;;10.20;3.08;;;;;;;11.32;100.00;100642.00;5082033;28;20047;-72
2023/11/19 01:36:15;;;;;;;10.20;3.38;;;;;;;11.30;100.00;100648.97;5090136;28;20455;-72
2023/11/19 01:38:59;;;;;;;14.07;2.80;;;;;;;11.28;100.00;100646.50;5073268;28;20094;-72
2023/11/19 01:41:43;;;;;;;18.83;3.08;;;;;;;11.28;100.00;100645.66;5088711;28;20527;-72
2023/11/19 01:44:27;;;;;;;17.13;3.00;;;;;;;11.25;100.00;100643.44;5086814;28;20051;-72
2023/11/19 01:47:11;;;;;;;15.65;2.83;;;;;;;11.21;100.00;100643.22;5083984;28;20043;-72
2023/11/19 01:49:55;;;;;;;20.45;3.22;;;;;;;11.20;100.00;100649.91;5080831;28;20397;-72
2023/11/19 01:52:39;;;;;;;13.30;2.72;;;;;;;11.20;100.00;100649.91;5055059;28;20047;-72
2023/11/19 01:55:24;;;;;;;14.32;3.25;;;;;;;11.19;100.00;100639.91;5095342;28;20092;-72
2023/11/19 01:58:08;;;;;;;20.92;3.70;;;;;;;11.15;100.00;100645.22;5081448;28;20066;-72
2023/11/19 02:00:52;;;;;;;15.80;3.42;;;;;;;11.12;100.00;100643.03;5088951;28;20521;-72
2023/11/19 02:03:35;;;;;;;13.57;3.75;;;;;;;11.12;100.00;100639.44;5086991;28;20035;-72
2023/11/19 02:06:20;;;;;;;26.75;3.83;;;;;;;11.08;100.00;100641.97;5065356;28;20477;-72
2023/11/19 02:09:07;;;;;;;19.15;3.17;;;;;;;11.06;100.00;100640.59;5052138;28;20067;-72
2023/11/19 02:11:51;;;;;;;20.83;3.03;;;;;;;11.05;100.00;100642.56;5057193;28;20435;-72
2023/11/19 02:14:35;;;;;;;25.52;3.55;;;;;;;11.01;100.00;100635.13;5087811;28;20036;-72
2023/11/19 02:17:34;;;;;;;20.67;2.80;;;;;;;10.99;100.00;100615.13;5067154;28;20059;-72
2023/11/19 02:20:19;;;;;;;13.30;3.50;;;;;;;10.98;100.00;100621.78;5093419;28;20047;-72
2023/11/19 02:23:04;;;;;;;19.30;3.65;;;;;;;10.93;100.00;100623.50;5073043;28;20048;-72
2023/11/19 02:26:02;;;;;;;22.00;3.60;;;;;;;10.91;100.00;100617.41;5073101;28;20035;-72
2023/11/19 02:28:46;;;;;;;14.45;3.60;;;;;;;10.87;100.00;100624.69;5085184;28;20437;-72
2023/11/19 02:31:30;;;;;;;16.95;3.25;;;;;;;10.84;100.00;100622.50;5084645;28;20383;-72
2023/11/19 02:34:14;;;;;;;20.48;4.30;;;;;;;10.78;100.00;100620.91;5084683;28;20170;-72
2023/11/19 02:37:00;;;;;;;22.02;3.35;;;;;;;10.74;100.00;100615.06;5082238;28;20055;-72
2023/11/19 02:39:44;;;;;;;20.58;3.15;;;;;;;10.72;100.00;100622.03;5089109;28;20039;-72
2023/11/19 02:42:28;;;;;;;17.20;3.22;;;;;;;10.68;100.00;100620.97;5067885;28;20467;-72
2023/11/19 02:45:14;;;;;;;17.23;3.92;;;;;;;10.65;100.00;100614.06;5062964;28;20094;-72
2023/11/19 02:48:01;;;;;;;18.58;3.25;;;;;;;10.61;100.00;100617.72;5072911;28;20083;-72
2023/11/19 02:50:45;;;;;;;24.60;4.07;;;;;;;10.56;100.00;100617.75;5081558;28;20090;-72
2023/11/19 02:53:30;;;;;;;16.83;3.25;;;;;;;10.51;100.00;100616.69;5063430;28;20036;-72
2023/11/19 02:56:37;;;;;;;22.42;3.95;;;;;;;10.50;100.00;100619.75;5058782;28;20043;-72
2023/11/19 02:59:27;;;;;;;16.70;3.17;;;;;;;10.44;100.00;100605.06;5087882;28;20468;-72
2023/11/19 03:02:15;;;;;;;22.85;4.25;;;;;;;10.40;100.00;100603.19;5096754;28;20100;-72
2023/11/19 03:05:00;;;;;;;21.77;3.50;;;;;;;10.36;100.00;100602.91;5068840;28;20506;-72
2023/11/19 03:07:44;;;;;;;15.23;2.80;;;;;;;10.33;100.00;100608.22;5090073;28;20586;-72
2023/11/19 03:10:29;;;;;;;20.73;3.35;;;;;;;10.32;100.00;100612.97;5084201;28;20097;-72
2023/11/19 03:13:19;;;;;;;26.13;3.53;;;;;;;10.26;100.00;100614.09;5096597;28;20046;-72
2023/11/19 03:16:03;;;;;;;19.90;3.28;;;;;;;10.24;100.00;100603.25;5069575;28;20066;-72
2023/11/19 03:18:48;;;;;;;22.67;3.63;;;;;;;10.22;100.00;100602.75;5077379;28;20047;-72
2023/11/19 03:21:32;;;;;;;20.38;3.55;;;;;;;10.20;100.00;100595.81;5078698;28;20043;-72
2023/11/19 03:24:17;;;;;;;21.98;3.33;;;;;;;10.14;100.00;100608.06;5049486;28;20079;-72
2023/11/19 03:27:01;;;;;;;21.10;4.13;;;;;;;10.12;100.00;100607.53;5086559;28;20038;-72
2023/11/19 03:29:45;;;;;;;16.25;3.10;;;;;;;10.05;100.00;100603.13;5085229;28;20392;-72
2023/11/19 03:32:29;;;;;;;24.60;3.33;;;;;;;10.05;100.00;100594.81;5072198;28;20043;-72
2023/11/19 03:35:13;;;;;;;22.63;3.75;;;;;;;10.03;100.00;100599.84;5073652;28;20529;-72
2023/11/19 03:37:57;;;;;;;18.95;3.50;;;;;;;9.99;100.00;100600.69;5068226;28;20081;-72
2023/11/19 03:40:41;;;;;;;22.73;3.42;;;;;;;9.97;100.00;100597.38;5082740;28;20043;-72
2023/11/19 03:43:25;;;;;;;19.52;3.20;;;;;;;9.93;100.00;100605.44;5098699;28;20043;-72
2023/11/19 03:46:18;;;;;;;16.25;3.15;;;;;;;9.92;100.00;100603.78;5090745;28;20081;-72
2023/11/19 03:49:04;;;;;;;17.98;2.95;;;;;;;9.88;100.00;100597.16;5095743;28;20047;-72
2023/11/19 03:51:48;;;;;;;16.95;3.25;;;;;;;9.83;100.00;100588.84;5098711;28;20039;-72
2023/11/19 03:54:32;;;;;;;25.48;3.95;;;;;;;9.79;100.00;100593.31;5081349;28;20116;-72
2023/11/19 03:57:16;;;;;;;17.67;3.63;;;;;;;9.77;100.00;100590.00;5081264;28;20038;-72
2023/11/19 04:00:08;;;;;;;24.48;4.90;;;;;;;9.74;100.00;100583.09;5083249;28;20039;-72
2023/11/19 04:02:52;;;;;;;25.95;3.75;;;;;;;9.75;100.00;100593.09;5086766;28;20043;-72
2023/11/19 04:05:36;;;;;;;22.65;3.63;;;;;;;9.70;100.00;100598.66;5082492;28;20161;-72
2023/11/19 04:08:20;;;;;;;18.63;3.47;;;;;;;9.69;100.00;100598.94;5083048;28;20051;-72
2023/11/19 04:11:05;;;;;;;15.38;3.55;;;;;;;9.67;100.00;100595.59;5052454;28;20043;-72
2023/11/19 04:13:49;;;;;;;26.35;4.03;;;;;;;9.62;100.00;100585.38;5109692;28;20047;-72
2023/11/19 04:16:33;;;;;;;24.73;3.70;;;;;;;9.63;100.00;100587.03;5086724;28;20063;-72
2023/11/19 04:19:18;;;;;;;33.47;4.28;;;;;;;9.60;100.00;100580.13;5082783;28;20050;-72
2023/11/19 04:22:02;;;;;;;24.83;4.10;;;;;;;9.58;100.00;100600.91;5082767;28;20129;-72
2023/11/19 04:24:46;;;;;;;18.17;3.50;;;;;;;9.59;100.00;100595.09;5082631;28;20070;-72
2023/11/19 04:27:30;;;;;;;23.10;4.07;;;;;;;9.58;100.00;100610.09;5097820;28;20097;-72
2023/11/19 04:30:15;;;;;;;37.95;5.20;;;;;;;9.55;100.00;100605.09;5062636;28;20491;-72
2023/11/19 04:32:58;;;;;;;20.08;3.53;;;;;;;9.56;100.00;100609.53;5094058;28;20074;-72
2023/11/19 04:35:42;;;;;;;22.77;4.30;;;;;;;9.56;100.00;100611.50;5097670;28;20063;-72
2023/11/19 04:38:27;;;;;;;24.92;4.25;;;;;;;9.54;100.00;100605.38;5065786;28;20035;-72
2023/11/19 04:41:11;;;;;;;22.75;3.80;;;;;;;9.53;100.00;100601.78;5046174;28;20047;-72
2023/11/19 04:43:55;;;;;;;19.98;3.60;;;;;;;9.52;100.00;100608.44;5091032;28;20443;-72
2023/11/19 04:46:39;;;;;;;19.05;3.38;;;;;;;9.51;100.00;100619.81;5062513;28;20055;-72
2023/11/19 04:49:23;;;;;;;21.90;3.95;;;;;;;9.49;100.00;100613.72;5081577;28;20047;-72
2023/11/19 04:52:07;;;;;;;26.02;4.88;;;;;;;9.47;100.00;100618.72;5082194;28;20097;-72
2023/11/19 04:54:52;;;;;;;23.50;3.63;;;;;;;9.46;100.00;100617.91;5081745;28;20064;-72
2023/11/19 04:57:36;;;;;;;26.48;4.50;;;;;;;9.41;100.00;100626.22;5086673;28;20071;-72
2023/11/19 05:00:21;;;;;;;25.75;3.88;;;;;;;9.40;100.00;100625.41;5094250;28;20047;-72
2023/11/19 05:03:06;;;;;;;22.15;3.45;;;;;;;9.39;100.00;100622.94;5074479;28;20392;-72
2023/11/19 05:05:50;;;;;;;22.83;4.32;;;;;;;9.36;100.00;100629.00;5088278;28;20124;-72
2023/11/19 05:08:35;;;;;;;19.60;3.25;;;;;;;9.38;100.00;100632.34;5081247;28;20043;-72
2023/11/19 05:11:20;;;;;;;21.08;3.45;;;;;;;9.34;100.00;100636.81;5089090;28;20031;-72
2023/11/19 05:14:04;;;;;;;24.85;4.20;;;;;;;9.28;100.00;100637.94;5061992;28;20042;-72
2023/11/19 05:16:48;;;;;;;25.10;4.43;;;;;;;9.27;100.00;100642.63;5066939;28;20074;-72
2023/11/19 05:19:32;;;;;;;21.42;4.43;;;;;;;9.27;100.00;100639.84;5073220;28;20043;-72
2023/11/19 05:22:17;;;;;;;30.77;4.63;;;;;;;9.24;100.00;100637.66;5086050;28;20078;-72
2023/11/19 05:25:02;;;;;;;28.85;4.03;;;;;;;9.23;100.00;100646.28;5065942;28;20043;-72
2023/11/19 05:27:46;;;;;;;27.58;4.47;;;;;;;9.21;100.00;100643.75;5068491;28;20111;-72
2023/11/19 05:30:30;;;;;;;22.65;4.05;;;;;;;9.20;100.00;100646.84;5100467;28;20050;-72
2023/11/19 05:33:14;;;;;;;20.70;3.83;;;;;;;9.18;100.00;100642.38;5081351;28;20548;-72
2023/11/19 05:35:58;;;;;;;24.38;4.20;;;;;;;9.15;100.00;100648.50;5080178;28;20047;-72
2023/11/19 05:38:42;;;;;;;30.05;4.18;;;;;;;9.12;100.00;100637.97;5101180;28;20070;-72
2023/11/19 05:41:26;;;;;;;18.70;3.17;;;;;;;9.11;100.00;100647.41;5083978;28;20510;-72
2023/11/19 05:44:10;;;;;;;28.33;3.92;;;;;;;9.10;100.00;100647.69;5087311;28;20055;-72
2023/11/19 05:46:54;;;;;;;26.27;3.53;;;;;;;9.11;100.00;100636.31;5093740;28;20081;-72
2023/11/19 05:49:38;;;;;;;21.00;3.90;;;;;;;9.09;100.00;100644.09;5063180;28;20070;-72
2023/11/19 05:52:23;;;;;;;27.27;4.30;;;;;;;9.08;100.00;100636.88;5093167;28;20055;-72
2023/11/19 05:55:10;;;;;;;29.63;4.45;;;;;;;9.07;100.00;100637.97;5066437;28;20499;-72
2023/11/19 05:57:54;;;;;;;23.90;3.97;;;;;;;9.04;100.00;100641.31;5082918;28;20067;-72
2023/11/19 06:00:40;;;;;;;31.45;4.78;;;;;;;9.05;100.00;100644.91;5083363;28;20043;-72
2023/11/19 06:03:24;;;;;;;25.38;4.05;;;;;;;9.03;100.00;100645.22;5083892;28;20039;-72
2023/11/19 06:06:09;;;;;;;27.38;4.53;;;;;;;9.06;100.00;100652.13;5100842;28;20101;-72
2023/11/19 06:08:53;;;;;;;26.52;4.65;;;;;;;9.05;100.00;100645.72;5097815;28;20042;-72
2023/11/19 06:11:37;;;;;;;27.92;4.50;;;;;;;9.05;100.00;100656.00;5069156;28;20042;-72
2023/11/19 06:14:24;;;;;;;29.23;5.07;;;;;;;9.01;100.00;100657.69;5075000;28;20495;-72
2023/11/19 06:17:10;;;;;;;27.65;4.25;;;;;;;9.03;100.00;100667.38;5052537;28;20051;-72
2023/11/19 06:19:54;;;;;;;31.42;4.85;;;;;;;9.02;100.00;100671.22;5056152;28;20067;-72
2023/11/19 06:22:38;;;;;;;31.15;4.65;;;;;;;9.00;100.00;100670.72;5031039;28;20040;-72
2023/11/19 06:25:23;;;;;;;23.17;3.65;;;;;;;8.99;100.00;100677.34;5058975;28;20105;-72
2023/11/19 06:28:07;;;;;;;33.30;4.68;;;;;;;9.04;100.00;100666.25;5042585;28;20080;-72
2023/11/19 06:30:51;;;;;;;23.75;4.05;;;;;;;9.02;100.00;100657.38;5049240;28;20158;-72
2023/11/19 06:33:36;;;;;;;31.15;4.82;;;;;;;9.05;100.00;100662.34;5043262;28;20445;-72
2023/11/19 06:36:20;;;;;;;31.35;5.07;;;;;;;9.06;100.00;100664.03;5059429;28;20075;-72
2023/11/19 06:39:05;;;;;;;24.27;4.35;;;;;;;9.08;100.00;100661.81;5033531;28;20048;-72
2023/11/19 06:41:49;;;;;;;25.65;4.25;;;;;;;9.06;100.00;100660.44;5049239;28;20063;-72
2023/11/19 06:44:34;;;;;;;30.33;4.43;;;;;;;9.09;100.00;100662.66;5030232;28;20101;-72
2023/11/19 06:47:18;;;;;;;28.42;4.43;;;;;;;9.10;100.00;100658.75;5044716;28;20500;-72
2023/11/19 06:50:05;;;;;;;29.77;4.57;;;;;;;9.08;100.00;100672.91;5039528;28;20063;-72
2023/11/19 06:52:49;;;;;;;32.75;4.90;;;;;;;9.08;100.00;100678.44;5059928;28;20047;-72
2023/11/19 06:55:33;;;;;;;30.02;4.78;;;;;;;9.08;100.00;100677.59;5041199;28;20051;-72
2023/11/19 06:58:17;;;;;;;24.02;3.90;;;;;;;9.08;100.00;100677.59;5047135;28;20080;-72
2023/11/19 07:01:01;;;;;;;27.40;4.53;;;;;;;9.03;100.00;100667.38;5038202;28;20040;-72
2023/11/19 07:03:46;;;;;;;26.48;4.85;;;;;;;9.04;100.00;100673.75;5038660;28;20595;-72
2023/11/19 07:06:31;;;;;;;23.25;3.72;;;;;;;9.03;100.00;100674.84;5052196;28;20095;-72
2023/11/19 07:09:15;;;;;;;28.90;4.47;;;;;;;9.00;100.00;100676.25;5040710;28;20048;-72
2023/11/19 07:12:01;;;;;;;37.28;5.38;;;;;;;8.98;100.00;100672.09;5042504;28;20393;-72
2023/11/19 07:14:46;;;;;;;32.38;4.47;;;;;;;9.00;100.00;100675.38;5045307;28;20053;-72
2023/11/19 07:17:31;;;;;;;22.35;4.60;;;;;;;8.96;100.00;100675.13;5047739;28;20060;-72
2023/11/19 07:20:15;;;;;;;28.92;3.65;;;;;;;8.93;100.00;100681.22;5038924;28;20039;-72
2023/11/19 07:22:59;;;;;;;32.75;4.88;;;;;;;8.92;100.00;100685.94;5046942;28;20441;-72
2023/11/19 07:25:46;;;;;;;27.80;4.35;;;;;;;8.93;100.00;100678.47;5038778;28;20056;-72
2023/11/19 07:28:31;;;;;;;27.48;4.93;;;;;;;8.89;100.00;100674.59;5057826;28;20104;-71
2023/11/19 07:31:15;;;;;;;34.38;4.43;;;;;;;8.89;100.00;100672.66;5065276;28;20032;-72
2023/11/19 07:33:59;;;;;;;26.30;5.07;;;;;;;8.89;100.00;100669.88;5023897;28;20091;-72
2023/11/19 07:36:43;;;;;;;27.80;6.05;;;;;;;8.87;100.00;100665.72;5032852;28;20044;-72
2023/11/19 07:39:28;;;;;;;30.02;4.13;;;;;;;8.84;100.00;100672.66;5052110;28;20052;-72
2023/11/19 07:42:12;;;;;;;32.33;4.75;;;;;;;8.87;100.00;100676.81;5042209;28;20079;-72
2023/11/19 07:44:57;;;;;;;29.60;4.13;;;;;;;8.86;100.00;100678.75;5037520;28;20068;-72
2023/11/19 07:47:40;;;;;;;28.73;5.28;;;;;;;8.88;100.00;100681.22;5038563;28;20072;-75
2023/11/19 07:50:25;;;;;;;41.25;5.53;;;;;;;8.87;100.00;100685.13;5038545;28;20109;-72
2023/11/19 07:53:09;;;;;;;33.55;4.70;;;;;;;8.90;100.00;100688.16;5038380;28;20052;-72
2023/11/19 07:55:53;;;;;;;30.60;5.68;;;;;;;8.91;100.00;100694.50;5050900;28;20052;-72
2023/11/19 07:58:38;;;;;;;31.00;4.60;;;;;;;8.91;100.00;100688.97;5039358;28;20102;-72
2023/11/19 08:01:23;;;;;;;35.25;5.43;;;;;;;8.93;100.00;100706.16;5021635;28;20036;-72
2023/11/19 08:04:07;;;;;;;38.95;4.75;;;;;;;8.92;100.00;100707.28;5042542;28;20047;-72
2023/11/19 08:06:51;;;;;;;43.95;5.93;;;;;;;8.93;100.00;100703.38;5040983;28;20393;-72
2023/11/19 08:09:35;;;;;;;35.80;5.18;;;;;;;8.96;100.00;100708.38;5038282;28;20095;-72
2023/11/19 08:12:19;;;;;;;33.67;4.53;;;;;;;8.99;100.00;100698.66;5057327;28;20040;-72
2023/11/19 08:15:04;;;;;;;29.00;4.47;;;;;;;9.00;100.00;100703.09;5039890;28;20117;-71
2023/11/19 08:17:49;;;;;;;33.30;4.38;;;;;;;9.04;100.00;100706.97;5055050;28;20055;-72
2023/11/19 08:20:33;;;;;;;31.05;4.10;;;;;;;9.07;100.00;100704.47;5046766;28;20098;-72
2023/11/19 08:23:18;;;;;;;34.50;4.95;;;;;;;9.14;100.00;100709.75;5057514;28;20389;-71
2023/11/19 08:26:02;;;;;;;40.00;5.63;;;;;;;9.18;100.00;100719.16;5049002;28;20036;-72
2023/11/19 08:28:47;;;;;;;36.83;4.53;;;;;;;9.22;100.00;100716.63;5046301;28;20032;-72
2023/11/19 08:31:31;;;;;;;34.08;5.25;;;;;;;9.27;100.00;100720.22;5043002;28;20044;-72
2023/11/19 08:34:16;;;;;;;35.80;4.90;;;;;;;9.33;100.00;100719.13;5046635;28;20040;-72
2023/11/19 08:37:00;;;;;;;33.58;4.72;;;;;;;9.40;100.00;100727.16;5050805;28;20064;-72
2023/11/19 08:39:44;;;;;;;37.63;4.82;;;;;;;9.46;100.00;100722.41;5053892;28;20044;-72
2023/11/19 08:42:29;;;;;;;33.25;5.65;;;;;;;9.51;100.00;100720.47;5043885;28;20394;-72
2023/11/19 08:45:13;;;;;;;30.98;5.00;;;;;;;9.57;100.00;100707.41;5044740;28;20559;-72
2023/11/19 08:47:57;;;;;;;40.15;6.63;;;;;;;9.62;100.00;100711.00;5037677;28;20121;-72
2023/11/19 08:50:41;;;;;;;41.80;5.70;;;;;;;9.69;100.00;100716.22;5048691;28;20409;-72
2023/11/19 08:53:25;;;;;;;36.05;4.88;;;;;;;9.76;100.00;100722.31;5050358;28;20040;-72
2023/11/19 08:56:09;;;;;;;37.97;5.82;;;;;;;9.83;100.00;100724.78;5045163;28;20047;-72
2023/11/19 08:58:53;;;;;;;44.78;6.40;;;;;;;9.90;100.00;100728.09;5050477;28;20044;-72
2023/11/19 09:01:37;;;;;;;35.55;4.82;;;;;;;9.98;100.00;100735.81;5021476;28;20056;-72
2023/11/19 09:04:24;;;;;;;43.88;6.22;;;;;;;10.07;100.00;100745.19;5065441;28;20091;-72
2023/11/19 09:07:11;;;;;;;49.60;6.38;;;;;;;10.20;100.00;100759.59;5018355;28;20432;-72
2023/11/19 09:09:55;;;;;;;45.67;6.15;;;;;;;10.26;100.00;100764.00;5043715;28;20049;-72
2023/11/19 09:12:39;;;;;;;56.83;6.85;;;;;;;10.38;100.00;100766.44;5056986;28;20043;-72
2023/11/19 09:15:24;;;;;;;48.13;7.03;;;;;;;10.48;100.00;100778.31;5048144;28;20541;-72
2023/11/19 09:18:08;;;;;;;50.47;6.57;;;;;;;10.58;100.00;100782.16;5051127;28;20115;-72
2023/11/19 09:20:52;;;;;;;55.03;7.20;;;;;;;10.68;100.00;100768.19;5057117;28;20044;-72
2023/11/19 09:23:38;;;;;;;45.58;6.05;;;;;;;10.77;100.00;100768.41;5044483;28;20071;-72
2023/11/19 09:26:23;;;;;;;44.60;6.80;;;;;;;10.84;100.00;100775.31;5040041;28;20547;-72
2023/11/19 09:29:07;;;;;;;41.10;6.40;;;;;;;10.95;100.00;100787.19;5037084;28;20095;-72
2023/11/19 09:31:52;;;;;;;46.75;7.10;;;;;;;11.05;100.00;100775.13;5045981;28;20115;-72
2023/11/19 09:34:36;;;;;;;55.33;6.13;;;;;;;11.16;100.00;100776.72;5023867;28;20393;-72
2023/11/19 09:37:20;;;;;;;56.60;6.78;;;;;;;11.28;100.00;100774.38;5049352;28;20508;-72
2023/11/19 09:40:05;;;;;;;54.30;7.05;;;;;;;11.40;100.00;100776.78;5036978;28;20036;-72
2023/11/19 09:42:49;;;;;;;49.25;6.75;;;;;;;11.53;100.00;100778.03;5054863;28;20087;-72
2023/11/19 09:45:44;;;;;;;46.95;6.35;;;;;;;11.66;100.00;100771.75;5055107;28;20385;-72
2023/11/19 09:48:28;;;;;;;43.78;6.75;;;;;;;11.77;100.00;100775.25;5041753;28;20056;-72
2023/11/19 09:51:12;;;;;;;67.13;7.22;;;;;;;11.89;100.00;100766.53;5022062;28;20113;-72
2023/11/19 09:53:56;;;;;;;48.60;5.65;;;;;;;12.00;100.00;100780.00;5036100;28;20112;-72
2023/11/19 09:56:40;;;;;;;52.67;7.00;;;;;;;12.10;100.00;100770.72;5046865;28;20079;-72
2023/11/19 09:59:25;;;;;;;52.42;7.13;;;;;;;12.21;100.00;100769.47;5047030;28;20052;-72
2023/11/19 10:02:09;;;;;;;55.08;6.40;;;;;;;12.32;100.00;100774.91;5041193;28;20043;-72
2023/11/19 10:04:53;;;;;;;49.47;6.38;;;;;;;12.42;100.00;100780.31;5042060;28;20060;-72
2023/11/19 10:07:37;;;;;;;49.55;6.95;;;;;;;12.50;100.00;100771.28;5059470;28;20079;-72
2023/11/19 10:10:22;;;;;;;51.97;6.38;;;;;;;12.61;100.00;100771.97;5046405;28;20090;-72
2023/11/19 10:13:08;;;;;;;49.28;6.70;;;;;;;12.71;100.00;100781.00;5046370;28;20044;-72
2023/11/19 10:15:52;;;;;;;46.28;7.05;;;;;;;12.81;100.00;100779.19;5047996;28;20503;-72
2023/11/19 10:18:40;;;;;;;51.45;6.82;;;;;;;12.87;100.00;100770.47;5077120;28;20075;-72
2023/11/19 10:21:24;;;;;;;48.28;6.88;;;;;;;12.97;100.00;100772.25;5089332;28;20058;-73
2023/11/19 10:24:08;;;;;;;42.53;6.28;;;;;;;13.02;100.00;100772.16;5077751;28;20039;-72
2023/11/19 10:26:52;;;;;;;47.28;6.50;;;;;;;13.11;100.00;100773.13;5051865;28;20178;-72
2023/11/19 10:29:39;;;;;;;50.05;6.63;;;;;;;13.20;100.00;100776.03;5081067;28;20518;-72
2023/11/19 10:32:23;;;;;;;45.13;6.35;;;;;;;13.27;100.00;100768.13;5098134;28;20038;-72
2023/11/19 10:35:08;;;;;;;44.67;6.05;;;;;;;13.36;100.00;100771.88;5088401;28;20042;-72
2023/11/19 10:37:52;;;;;;;49.22;6.50;;;;;;;13.40;100.00;100755.38;5095169;28;20045;-72
2023/11/19 10:40:42;;;;;;;51.60;6.85;;;;;;;13.47;100.00;100761.34;5079628;28;20150;-72
2023/11/19 10:43:27;;;;;;;49.78;7.22;;;;;;;13.51;100.00;100770.78;5078758;28;20064;-72
2023/11/19 10:46:12;;;;;;;43.33;5.75;;;;;;;13.59;100.00;100753.31;5050735;28;20116;-72
2023/11/19 10:48:56;;;;;;;41.90;5.40;;;;;;;13.66;100.00;100746.50;5079441;28;20082;-72
2023/11/19 10:51:49;;;;;;;36.95;5.55;;;;;;;13.74;100.00;100745.78;5070741;28;20067;-72
2023/11/19 10:54:34;;;;;;;43.13;5.95;;;;;;;13.80;100.00;100738.97;5064727;28;20070;-72
2023/11/19 10:57:20;;;;;;;44.95;5.57;;;;;;;13.88;100.00;100727.06;5075937;28;20066;-72
2023/11/19 11:00:12;;;;;;;49.15;5.07;;;;;;;13.98;100.00;100724.03;5073449;28;20502;-72
2023/11/19 11:02:59;;;;;;;41.90;5.63;;;;;;;14.06;100.00;100728.91;5074511;28;20115;-72
2023/11/19 11:05:43;;;;;;;45.08;8.27;;;;;;;14.17;100.00;100723.94;5084229;28;20038;-72
2023/11/19 11:08:28;;;;;;;38.45;5.75;;;;;;;14.26;100.00;100721.22;5085453;28;20039;-72
2023/11/19 11:11:13;;;;;;;43.90;6.53;;;;;;;14.33;100.00;100704.88;5092782;28;20089;-72
2023/11/19 11:13:57;;;;;;;44.15;5.43;;;;;;;14.39;100.00;100709.19;5062924;28;20086;-72
2023/11/19 11:16:42;;;;;;;34.50;4.60;;;;;;;14.48;100.00;100712.06;5073240;28;20055;-72
2023/11/19 11:19:27;;;;;;;37.78;5.85;;;;;;;14.51;100.00;100689.91;5098369;28;20126;-72
2023/11/19 11:22:11;;;;;;;37.33;6.05;;;;;;;14.59;100.00;100691.13;5075625;28;20155;-72
2023/11/19 11:25:19;;;;;;;42.40;4.90;;;;;;;14.62;100.00;100690.50;5077741;28;20047;-72
2023/11/19 11:28:10;;;;;;;45.67;5.03;;;;;;;14.71;100.00;100680.22;5065738;28;20570;-72
2023/11/19 11:31:06;;;;;;;46.65;5.90;;;;;;;14.68;100.00;100666.03;5049403;28;20043;-72
2023/11/19 11:34:06;;;;;;;40.28;5.50;;;;;;;15.23;100.00;100660.13;5069526;28;20512;-72
2023/11/19 11:36:58;;;;;;;39.53;6.18;;;;;;;15.50;100.00;100655.47;5079964;28;20108;-72
2023/11/19 11:39:42;;;;;;;32.83;5.10;;;;;;;15.75;100.00;100665.13;5085769;28;20445;-72
2023/11/19 11:42:26;;;;;;;31.63;5.28;;;;;;;15.46;100.00;100651.66;5066650;28;20075;-72
2023/11/19 11:45:11;;;;;;;40.60;5.43;;;;;;;15.65;100.00;100649.41;5078568;28;20054;-72
2023/11/19 11:47:55;;;;;;;39.08;5.35;;;;;;;15.71;100.00;100653.78;5086518;28;20119;-72
2023/11/19 11:50:49;;;;;;;37.25;4.75;;;;;;;15.42;100.00;100645.91;5081240;28;20047;-72
2023/11/19 11:53:33;;;;;;;39.30;5.50;;;;;;;15.30;100.00;100645.69;5078183;28;20518;-72
2023/11/19 11:56:18;;;;;;;32.75;4.72;;;;;;;15.16;100.00;100648.59;5059832;28;20046;-72
2023/11/19 11:59:02;;;;;;;43.38;5.90;;;;;;;15.13;100.00;100632.44;5078213;28;20035;-72
2023/11/19 12:02:00;;;;;;;35.47;5.65;;;;;;;15.10;100.00;100633.91;5077074;28;20063;-72
2023/11/19 12:04:51;;;;;;;28.63;4.82;;;;;;;15.07;100.00;100642.94;5098313;28;20046;-72
2023/11/19 12:07:38;;;;;;;30.65;4.82;;;;;;;15.06;100.00;100641.28;5086453;28;20043;-72
2023/11/19 12:10:23;;;;;;;32.67;4.65;;;;;;;15.05;100.00;100638.81;5084380;28;20047;-72
2023/11/19 12:13:07;;;;;;;38.65;5.28;;;;;;;15.05;100.00;100641.63;5076842;28;20035;-72
2023/11/19 12:15:57;;;;;;;34.78;5.35;;;;;;;15.06;100.00;100648.84;5077667;28;20083;-72
2023/11/19 12:18:41;;;;;;;28.45;4.47;;;;;;;15.05;100.00;100638.81;5096529;28;20086;-72
2023/11/19 12:21:32;;;;;;;34.83;5.15;;;;;;;15.00;100.00;100641.75;5083357;28;20450;-72
2023/11/19 12:24:17;;;;;;;34.30;5.38;;;;;;;14.95;100.00;100640.72;5097167;28;20046;-72
2023/11/19 12:27:01;;;;;;;40.85;6.07;;;;;;;14.94;100.00;100635.47;5080070;28;20074;-72
2023/11/19 12:29:45;;;;;;;34.35;5.85;;;;;;;14.90;100.00;100631.66;5066361;28;20039;-72
2023/11/19 12:32:37;;;;;;;33.20;5.25;;;;;;;14.92;100.00;100632.97;5058967;28;20039;-72